Time;durP1;ratioP1;P1;durP2;ratioP2;P2;SDS_P1;SDS_P2;PMS_P1;PMS_P2;Temp;Humidity;BMP_temperature;BMP_pressure;BME280_temperature;BME280_humidity;BME280_pressure;Samples;Min_cycle;Max_cycle;Signal;HPM_P1;HPM_P2
2023/04/30 00:00:27;;;;;;;10.00;8.80;;;;;;;;;;5013605;28;20447;-65
2023/04/30 00:02:54;;;;;;;10.20;9.17;;;;;;;;;;5013468;28;20192;-65
2023/04/30 00:05:22;;;;;;;12.15;9.23;;;;;;;;;;5013567;28;20439;-66
2023/04/30 00:07:49;;;;;;;11.23;9.10;;;;;;;;;;5013450;28;20197;-66
2023/04/30 00:10:16;;;;;;;12.87;9.03;;;;;;;;;;5013678;28;20443;-66
2023/04/30 00:12:45;;;;;;;16.50;9.02;;;;;;;;;;5013521;28;20815;-66
2023/04/30 00:15:12;;;;;;;10.40;8.70;;;;;;;;;;5013465;28;20200;-65
2023/04/30 00:17:39;;;;;;;11.98;8.75;;;;;;;;;;5013430;28;20920;-66
2023/04/30 00:20:07;;;;;;;11.07;8.73;;;;;;;;;;5013148;28;20255;-66
2023/04/30 00:22:34;;;;;;;11.17;9.20;;;;;;;;;;5012969;28;20206;-66
2023/04/30 00:25:01;;;;;;;13.98;9.57;;;;;;;;;;5013632;28;20505;-66
2023/04/30 00:27:30;;;;;;;11.85;8.75;;;;;;;;;;5013492;28;20195;-66
2023/04/30 00:29:58;;;;;;;11.35;10.20;;;;;;;;;;5013383;28;20585;-66
2023/04/30 00:32:26;;;;;;;11.60;9.10;;;;;;;;;;5013270;28;20200;-66
2023/04/30 00:34:53;;;;;;;14.30;10.13;;;;;;;;;;5013303;28;20451;-66
2023/04/30 00:37:20;;;;;;;11.82;10.23;;;;;;;;;;5013235;28;20497;-66
2023/04/30 00:39:48;;;;;;;11.95;9.77;;;;;;;;;;5014570;28;20197;-66
2023/04/30 00:42:15;;;;;;;16.10;11.43;;;;;;;;;;5017136;28;20192;-66
2023/04/30 00:44:42;;;;;;;15.47;10.40;;;;;;;;;;5016834;28;20220;-66
2023/04/30 00:47:10;;;;;;;13.23;11.88;;;;;;;;;;5016915;28;20439;-66
2023/04/30 00:49:38;;;;;;;14.00;9.75;;;;;;;;;;5016847;28;20603;-65
2023/04/30 00:52:05;;;;;;;12.65;10.95;;;;;;;;;;5016802;28;20192;-66
2023/04/30 00:54:33;;;;;;;16.05;11.85;;;;;;;;;;5017328;28;20266;-66
2023/04/30 00:57:00;;;;;;;14.87;11.90;;;;;;;;;;5016268;28;20200;-65
2023/04/30 00:59:28;;;;;;;15.60;11.57;;;;;;;;;;5016963;28;20530;-65
2023/04/30 01:01:56;;;;;;;15.52;11.73;;;;;;;;;;5016577;28;20579;-65
2023/04/30 01:04:24;;;;;;;14.20;11.43;;;;;;;;;;5016051;28;20220;-66
2023/04/30 01:06:52;;;;;;;16.25;13.40;;;;;;;;;;5016928;28;20230;-66
2023/04/30 01:09:19;;;;;;;13.35;10.07;;;;;;;;;;5015899;28;20196;-66
2023/04/30 01:11:50;;;;;;;16.37;11.43;;;;;;;;;;5016124;28;20202;-66
2023/04/30 01:14:22;;;;;;;12.32;9.48;;;;;;;;;;5016022;28;20427;-66
2023/04/30 01:16:52;;;;;;;13.48;11.27;;;;;;;;;;5016666;28;20188;-66
2023/04/30 01:19:28;;;;;;;11.80;10.20;;;;;;;;;;5016597;28;20286;-65
2023/04/30 01:21:58;;;;;;;14.35;10.65;;;;;;;;;;5016353;28;20540;-66
2023/04/30 01:24:33;;;;;;;13.30;9.88;;;;;;;;;;5016316;28;20567;-65
2023/04/30 01:27:05;;;;;;;14.18;11.35;;;;;;;;;;5016546;28;20188;-66
2023/04/30 01:29:35;;;;;;;16.27;11.25;;;;;;;;;;5016464;28;20197;-66
2023/04/30 01:32:02;;;;;;;16.38;12.43;;;;;;;;;;5015596;28;20238;-66
2023/04/30 01:34:29;;;;;;;17.88;13.23;;;;;;;;;;5016027;28;20211;-66
2023/04/30 01:37:03;;;;;;;15.10;11.55;;;;;;;;;;5015654;28;20224;-66
2023/04/30 01:39:45;;;;;;;14.70;11.55;;;;;;;;;;5016234;28;20200;-65
2023/04/30 01:42:15;;;;;;;12.30;10.90;;;;;;;;;;5012582;28;20196;-65
2023/04/30 01:44:49;;;;;;;13.68;10.95;;;;;;;;;;5015685;28;20220;-65
2023/04/30 01:47:21;;;;;;;13.15;11.27;;;;;;;;;;5015967;28;20226;-65
2023/04/30 01:49:52;;;;;;;16.02;12.40;;;;;;;;;;5016269;28;20189;-66
2023/04/30 01:52:23;;;;;;;14.18;12.30;;;;;;;;;;5014553;28;20238;-65
2023/04/30 01:54:53;;;;;;;17.25;12.30;;;;;;;;;;5015624;28;20243;-65
2023/04/30 01:57:23;;;;;;;19.45;12.43;;;;;;;;;;5015367;28;20200;-66
2023/04/30 01:59:52;;;;;;;15.85;11.75;;;;;;;;;;5015467;28;20187;-65
2023/04/30 02:02:19;;;;;;;15.23;11.70;;;;;;;;;;5015359;28;20192;-66
2023/04/30 02:04:46;;;;;;;16.10;12.75;;;;;;;;;;5015360;28;20310;-67
2023/04/30 02:07:14;;;;;;;15.20;12.57;;;;;;;;;;5015262;28;20223;-65
2023/04/30 02:09:41;;;;;;;15.07;12.60;;;;;;;;;;5015124;28;20203;-65
2023/04/30 02:12:08;;;;;;;15.80;13.88;;;;;;;;;;5015137;28;20203;-65
2023/04/30 02:14:36;;;;;;;16.08;13.20;;;;;;;;;;5015416;28;20203;-65
2023/04/30 02:17:05;;;;;;;16.23;12.50;;;;;;;;;;5015370;28;20239;-65
2023/04/30 02:19:32;;;;;;;15.90;12.82;;;;;;;;;;5015060;28;20250;-65
2023/04/30 02:21:59;;;;;;;20.48;14.45;;;;;;;;;;5015189;28;20195;-65
2023/04/30 02:24:26;;;;;;;14.35;11.13;;;;;;;;;;5014535;28;20227;-65
2023/04/30 02:26:54;;;;;;;19.05;14.00;;;;;;;;;;5014946;28;20210;-65
2023/04/30 02:29:21;;;;;;;13.38;11.95;;;;;;;;;;5015166;28;20218;-65
2023/04/30 02:31:48;;;;;;;16.67;12.98;;;;;;;;;;5015071;28;20199;-65
2023/04/30 02:34:16;;;;;;;17.80;12.50;;;;;;;;;;5014749;28;20206;-65
2023/04/30 02:36:44;;;;;;;15.40;11.30;;;;;;;;;;5014601;28;20207;-65
2023/04/30 02:39:11;;;;;;;19.98;11.90;;;;;;;;;;5014870;28;20237;-65
2023/04/30 02:41:38;;;;;;;14.65;12.27;;;;;;;;;;5014433;28;20202;-65
2023/04/30 02:44:05;;;;;;;19.83;13.15;;;;;;;;;;5014717;28;20202;-66
2023/04/30 02:46:32;;;;;;;17.30;12.15;;;;;;;;;;5014947;28;20210;-65
2023/04/30 02:48:59;;;;;;;16.67;11.85;;;;;;;;;;5014492;28;20559;-65
2023/04/30 02:51:28;;;;;;;15.52;12.60;;;;;;;;;;5014759;28;20199;-67
2023/04/30 02:53:55;;;;;;;19.05;11.98;;;;;;;;;;5014425;28;20283;-66
2023/04/30 02:56:23;;;;;;;15.27;13.02;;;;;;;;;;5014441;28;20209;-66
2023/04/30 02:58:50;;;;;;;17.23;12.73;;;;;;;;;;5014702;28;20218;-65
2023/04/30 03:01:17;;;;;;;17.67;12.02;;;;;;;;;;5014378;28;20200;-66
2023/04/30 03:03:44;;;;;;;15.30;11.45;;;;;;;;;;5014943;28;20574;-65
2023/04/30 03:06:11;;;;;;;18.20;11.75;;;;;;;;;;5013927;28;20697;-65
2023/04/30 03:08:40;;;;;;;15.57;12.80;;;;;;;;;;5013970;28;20257;-65
2023/04/30 03:11:07;;;;;;;14.32;11.60;;;;;;;;;;5014226;28;20279;-65
2023/04/30 03:13:34;;;;;;;15.63;12.52;;;;;;;;;;5014159;28;20198;-65
2023/04/30 03:16:03;;;;;;;13.68;11.60;;;;;;;;;;5014155;28;20210;-66
2023/04/30 03:18:30;;;;;;;14.77;11.48;;;;;;;;;;5014012;28;20305;-65
2023/04/30 03:20:58;;;;;;;16.00;12.18;;;;;;;;;;5014051;28;20200;-65
2023/04/30 03:23:25;;;;;;;14.95;12.20;;;;;;;;;;5014133;28;20200;-68
2023/04/30 03:25:54;;;;;;;14.25;12.15;;;;;;;;;;5014127;28;20215;-65
2023/04/30 03:28:21;;;;;;;16.33;10.88;;;;;;;;;;5014026;28;20238;-65
2023/04/30 03:30:48;;;;;;;16.10;13.25;;;;;;;;;;5013641;28;20200;-65
2023/04/30 03:33:15;;;;;;;14.05;11.80;;;;;;;;;;5013908;28;20216;-65
2023/04/30 03:35:42;;;;;;;13.40;11.30;;;;;;;;;;5013477;28;20215;-65
2023/04/30 03:38:10;;;;;;;17.05;12.70;;;;;;;;;;5013511;28;20235;-65
2023/04/30 03:40:37;;;;;;;16.05;12.13;;;;;;;;;;5013470;28;20288;-65
2023/04/30 03:43:05;;;;;;;16.65;11.80;;;;;;;;;;5013907;28;20656;-65
2023/04/30 03:45:33;;;;;;;14.02;11.10;;;;;;;;;;5011261;28;20228;-67
2023/04/30 03:48:00;;;;;;;16.98;11.55;;;;;;;;;;5012923;28;20203;-65
2023/04/30 03:50:27;;;;;;;17.52;12.43;;;;;;;;;;5012600;28;20199;-66
2023/04/30 03:52:54;;;;;;;15.45;11.40;;;;;;;;;;5012632;28;20197;-66
2023/04/30 03:55:21;;;;;;;13.55;11.10;;;;;;;;;;5012532;28;20211;-65
2023/04/30 03:57:48;;;;;;;16.45;10.60;;;;;;;;;;5012516;28;20210;-66
2023/04/30 04:00:17;;;;;;;12.65;9.90;;;;;;;;;;5012320;28;20196;-66
2023/04/30 04:02:44;;;;;;;17.17;10.13;;;;;;;;;;5012944;28;20657;-65
2023/04/30 04:05:11;;;;;;;11.75;10.27;;;;;;;;;;5012649;28;20582;-66
2023/04/30 04:07:39;;;;;;;13.95;11.40;;;;;;;;;;5013079;28;20195;-66
2023/04/30 04:10:06;;;;;;;20.58;11.32;;;;;;;;;;5013038;28;20200;-67
2023/04/30 04:12:34;;;;;;;14.38;10.40;;;;;;;;;;5013123;28;20203;-66
2023/04/30 04:15:01;;;;;;;18.15;10.90;;;;;;;;;;5014594;28;20215;-68
2023/04/30 04:17:30;;;;;;;12.90;10.00;;;;;;;;;;5017841;28;20192;-66
2023/04/30 04:19:57;;;;;;;16.13;11.00;;;;;;;;;;5016836;28;20686;-67
2023/04/30 04:22:25;;;;;;;12.60;11.35;;;;;;;;;;5017257;28;20274;-66
2023/04/30 04:24:52;;;;;;;11.85;9.98;;;;;;;;;;5016833;28;20226;-66
2023/04/30 04:27:19;;;;;;;14.82;10.02;;;;;;;;;;5016778;28;20204;-66
2023/04/30 04:29:46;;;;;;;12.88;10.15;;;;;;;;;;5016668;28;20254;-65
2023/04/30 04:32:13;;;;;;;17.08;10.50;;;;;;;;;;5017043;28;20678;-65
2023/04/30 04:34:42;;;;;;;14.38;10.63;;;;;;;;;;5017113;28;20690;-68
2023/04/30 04:37:10;;;;;;;22.73;11.25;;;;;;;;;;5016271;28;20204;-65
2023/04/30 04:39:37;;;;;;;13.50;10.95;;;;;;;;;;5016849;28;20191;-67
2023/04/30 04:42:04;;;;;;;12.48;10.05;;;;;;;;;;5017192;28;20211;-67
2023/04/30 04:44:32;;;;;;;14.65;10.45;;;;;;;;;;5016696;28;20615;-66
2023/04/30 04:46:59;;;;;;;11.32;9.63;;;;;;;;;;5015972;28;20207;-69
2023/04/30 04:49:26;;;;;;;12.10;10.45;;;;;;;;;;5016327;28;20535;-66
2023/04/30 04:51:55;;;;;;;14.48;9.45;;;;;;;;;;5016617;28;20564;-65
2023/04/30 04:54:22;;;;;;;15.02;8.60;;;;;;;;;;5016621;28;20203;-65
2023/04/30 04:56:50;;;;;;;12.80;8.73;;;;;;;;;;5016501;28;20208;-65
2023/04/30 04:59:18;;;;;;;10.88;8.02;;;;;;;;;;5016542;28;20201;-66
2023/04/30 05:01:45;;;;;;;15.82;7.68;;;;;;;;;;5016628;28;20613;-66
2023/04/30 05:04:12;;;;;;;15.32;8.10;;;;;;;;;;5016409;28;20200;-66
2023/04/30 05:06:41;;;;;;;12.43;8.23;;;;;;;;;;5016006;28;20296;-65
2023/04/30 05:09:09;;;;;;;10.00;6.78;;;;;;;;;;5015525;28;20208;-65
2023/04/30 05:11:37;;;;;;;9.95;7.47;;;;;;;;;;5015971;28;20202;-65
2023/04/30 05:14:04;;;;;;;9.45;6.22;;;;;;;;;;5015926;28;20199;-66
2023/04/30 05:16:31;;;;;;;11.18;7.10;;;;;;;;;;5015907;28;20200;-68
2023/04/30 05:18:58;;;;;;;16.13;7.03;;;;;;;;;;5015811;28;20196;-65
2023/04/30 05:21:28;;;;;;;7.95;7.05;;;;;;;;;;5016033;28;20200;-65
2023/04/30 05:23:55;;;;;;;8.02;7.22;;;;;;;;;;5009402;28;20631;-65
2023/04/30 05:26:24;;;;;;;16.27;6.80;;;;;;;;;;4994326;28;20578;-66
2023/04/30 05:28:51;;;;;;;10.02;6.32;;;;;;;;;;4995347;28;20291;-66
2023/04/30 05:31:19;;;;;;;9.95;6.68;;;;;;;;;;4996026;28;20209;-69
2023/04/30 05:33:46;;;;;;;11.63;6.60;;;;;;;;;;4995928;28;20201;-67
2023/04/30 05:36:15;;;;;;;12.88;6.90;;;;;;;;;;4995875;28;20201;-68
2023/04/30 05:38:42;;;;;;;6.70;6.10;;;;;;;;;;4995570;28;20232;-67
2023/04/30 05:41:11;;;;;;;8.93;6.15;;;;;;;;;;4996073;28;20451;-67
2023/04/30 05:43:40;;;;;;;12.85;6.07;;;;;;;;;;4995827;28;20212;-67
2023/04/30 05:46:07;;;;;;;9.23;5.82;;;;;;;;;;5005836;28;20216;-67
2023/04/30 05:48:34;;;;;;;10.48;6.05;;;;;;;;;;5015298;28;20200;-69
2023/04/30 05:51:01;;;;;;;11.70;6.55;;;;;;;;;;5014858;28;20207;-70
2023/04/30 05:53:29;;;;;;;10.35;6.55;;;;;;;;;;5015736;28;20196;-68
2023/04/30 05:55:56;;;;;;;9.80;5.97;;;;;;;;;;5015068;28;20206;-67
2023/04/30 05:58:23;;;;;;;10.90;6.43;;;;;;;;;;5015423;28;20533;-68
2023/04/30 06:00:52;;;;;;;16.33;6.32;;;;;;;;;;5015398;28;20507;-68
2023/04/30 06:03:19;;;;;;;6.63;5.18;;;;;;;;;;5015221;28;20207;-67
2023/04/30 06:05:47;;;;;;;6.03;5.45;;;;;;;;;;5014479;28;20223;-68
2023/04/30 06:08:14;;;;;;;7.75;5.72;;;;;;;;;;5014979;28;20196;-68
2023/04/30 06:10:41;;;;;;;11.17;5.73;;;;;;;;;;5014870;28;20200;-68
2023/04/30 06:13:08;;;;;;;12.70;6.82;;;;;;;;;;5014690;28;20451;-68
2023/04/30 06:15:36;;;;;;;13.80;6.40;;;;;;;;;;5014954;28;20273;-67
2023/04/30 06:18:04;;;;;;;9.02;7.15;;;;;;;;;;5014968;28;20199;-67
2023/04/30 06:20:32;;;;;;;9.10;6.40;;;;;;;;;;5014871;28;20267;-72
2023/04/30 06:23:01;;;;;;;8.17;5.87;;;;;;;;;;5014701;28;20443;-68
2023/04/30 06:25:28;;;;;;;8.07;5.83;;;;;;;;;;5014217;28;20511;-68
2023/04/30 06:27:55;;;;;;;15.55;6.15;;;;;;;;;;5014711;28;20947;-66
2023/04/30 06:30:23;;;;;;;13.65;6.80;;;;;;;;;;5012514;28;20650;-68
2023/04/30 06:32:50;;;;;;;11.63;6.70;;;;;;;;;;5014636;28;20200;-67
2023/04/30 06:35:18;;;;;;;12.07;8.17;;;;;;;;;;5014736;28;20466;-67
2023/04/30 06:37:46;;;;;;;13.37;7.03;;;;;;;;;;5014153;28;20485;-67
2023/04/30 06:40:13;;;;;;;13.83;5.97;;;;;;;;;;5014589;28;20447;-67
2023/04/30 06:42:40;;;;;;;9.30;6.40;;;;;;;;;;5014499;28;20501;-68
2023/04/30 06:45:08;;;;;;;9.17;6.03;;;;;;;;;;5014674;28;20446;-68
2023/04/30 06:47:36;;;;;;;15.43;7.18;;;;;;;;;;5013986;28;20455;-67
2023/04/30 06:50:04;;;;;;;8.60;7.10;;;;;;;;;;5013683;28;20642;-67
2023/04/30 06:52:32;;;;;;;13.35;6.90;;;;;;;;;;5014253;28;20211;-69
2023/04/30 06:54:59;;;;;;;13.10;7.05;;;;;;;;;;5014130;28;20200;-67
2023/04/30 06:57:27;;;;;;;7.85;7.05;;;;;;;;;;5014325;28;20200;-68
2023/04/30 06:59:54;;;;;;;18.63;7.47;;;;;;;;;;5000579;28;20670;-70
2023/04/30 07:02:21;;;;;;;11.55;7.40;;;;;;;;;;4994263;28;20208;-67
2023/04/30 07:04:49;;;;;;;18.00;7.80;;;;;;;;;;4994532;28;20683;-67
2023/04/30 07:07:16;;;;;;;6.85;6.15;;;;;;;;;;4994120;28;20280;-67
2023/04/30 07:09:44;;;;;;;15.10;7.23;;;;;;;;;;4994312;28;20218;-70
2023/04/30 07:12:12;;;;;;;16.37;8.80;;;;;;;;;;4993869;28;20443;-67
2023/04/30 07:14:39;;;;;;;9.97;7.20;;;;;;;;;;4994404;28;20444;-67
2023/04/30 07:17:06;;;;;;;12.67;7.10;;;;;;;;;;4994038;28;20466;-67
2023/04/30 07:19:34;;;;;;;8.82;7.07;;;;;;;;;;4994353;28;20808;-67
2023/04/30 07:22:01;;;;;;;17.53;6.80;;;;;;;;;;4994408;28;20197;-67
2023/04/30 07:24:28;;;;;;;8.70;6.80;;;;;;;;;;4993904;28;20454;-68
2023/04/30 07:26:58;;;;;;;7.93;6.77;;;;;;;;;;4994029;28;20484;-67
2023/04/30 07:29:25;;;;;;;13.30;7.57;;;;;;;;;;4993689;28;20969;-68
2023/04/30 07:31:52;;;;;;;11.13;7.00;;;;;;;;;;4994135;28;20806;-67
2023/04/30 07:34:20;;;;;;;12.57;6.80;;;;;;;;;;4993855;28;20946;-67
2023/04/30 07:36:47;;;;;;;20.53;7.17;;;;;;;;;;4993673;28;20458;-67
2023/04/30 07:39:14;;;;;;;7.83;6.00;;;;;;;;;;4993426;28;20476;-68
2023/04/30 07:41:42;;;;;;;12.13;6.10;;;;;;;;;;4994017;28;20445;-67
2023/04/30 07:44:11;;;;;;;8.90;6.77;;;;;;;;;;4993768;28;20479;-67
2023/04/30 07:46:38;;;;;;;9.37;6.20;;;;;;;;;;4993428;28;20515;-69
2023/04/30 07:49:05;;;;;;;13.20;6.07;;;;;;;;;;4993345;28;20453;-67
2023/04/30 07:51:33;;;;;;;10.43;6.70;;;;;;;;;;4993486;28;20452;-67
2023/04/30 07:54:00;;;;;;;8.60;5.00;;;;;;;;;;4993917;28;20452;-67
2023/04/30 07:56:28;;;;;;;6.80;5.90;;;;;;;;;;4993924;28;20449;-67
2023/04/30 07:58:55;;;;;;;16.90;6.17;;;;;;;;;;4993325;28;20444;-68
2023/04/30 08:01:23;;;;;;;11.20;5.77;;;;;;;;;;4993806;28;20487;-67
2023/04/30 08:03:50;;;;;;;8.37;4.97;;;;;;;;;;4993517;28;20444;-67
2023/04/30 08:06:18;;;;;;;11.00;6.10;;;;;;;;;;4993227;28;20552;-68
2023/04/30 08:08:45;;;;;;;11.60;4.93;;;;;;;;;;4993017;28;20949;-67
2023/04/30 08:11:12;;;;;;;7.73;4.67;;;;;;;;;;4994236;28;20483;-67
2023/04/30 08:13:40;;;;;;;10.80;5.60;;;;;;;;;;4993688;28;20442;-67
2023/04/30 08:16:08;;;;;;;7.07;5.70;;;;;;;;;;4993238;28;20448;-67
2023/04/30 08:18:37;;;;;;;7.60;5.27;;;;;;;;;;4993408;28;20968;-68
2023/04/30 08:21:05;;;;;;;6.60;5.13;;;;;;;;;;4993702;28;20447;-67
2023/04/30 08:23:32;;;;;;;7.80;4.73;;;;;;;;;;4993491;28;21022;-67
2023/04/30 08:25:59;;;;;;;6.67;4.17;;;;;;;;;;4993204;28;20448;-67
2023/04/30 08:28:26;;;;;;;10.27;5.20;;;;;;;;;;4993168;28;20441;-67
2023/04/30 08:30:54;;;;;;;9.73;5.27;;;;;;;;;;4993263;28;20459;-67
2023/04/30 08:33:21;;;;;;;9.43;4.97;;;;;;;;;;4993163;28;21031;-67
2023/04/30 08:35:49;;;;;;;9.63;5.67;;;;;;;;;;4993654;28;20440;-67
2023/04/30 08:38:17;;;;;;;7.80;4.20;;;;;;;;;;4993296;28;20571;-67
2023/04/30 08:40:48;;;;;;;9.83;4.40;;;;;;;;;;4993081;28;20456;-67
2023/04/30 08:43:16;;;;;;;6.57;4.47;;;;;;;;;;4993408;28;20432;-67
2023/04/30 08:45:43;;;;;;;9.70;5.80;;;;;;;;;;4993377;28;20813;-67
2023/04/30 08:48:12;;;;;;;10.33;5.77;;;;;;;;;;4993306;28;20483;-67
2023/04/30 08:50:40;;;;;;;5.93;5.10;;;;;;;;;;4993252;28;20535;-67
2023/04/30 08:53:09;;;;;;;14.30;5.10;;;;;;;;;;4993390;28;20440;-67
2023/04/30 08:55:37;;;;;;;6.50;4.90;;;;;;;;;;4992963;28;20449;-67
2023/04/30 08:58:04;;;;;;;9.17;4.33;;;;;;;;;;4993223;28;20451;-67
2023/04/30 09:00:32;;;;;;;9.13;5.10;;;;;;;;;;4993776;28;20448;-68
2023/04/30 09:03:01;;;;;;;6.50;4.60;;;;;;;;;;4996465;28;20459;-67
2023/04/30 09:05:28;;;;;;;9.57;5.43;;;;;;;;;;4996377;28;20933;-68
2023/04/30 09:07:55;;;;;;;14.60;6.00;;;;;;;;;;4996966;28;20498;-67
2023/04/30 09:10:24;;;;;;;8.67;7.00;;;;;;;;;;4996810;28;20447;-67
2023/04/30 09:13:01;;;;;;;6.00;5.23;;;;;;;;;;4996590;28;20454;-67
2023/04/30 09:15:28;;;;;;;5.10;4.00;;;;;;;;;;4996422;28;20524;-67
2023/04/30 09:18:08;;;;;;;10.23;5.10;;;;;;;;;;4996191;28;20448;-67
2023/04/30 09:20:36;;;;;;;7.23;6.00;;;;;;;;;;4996017;28;20560;-66
2023/04/30 09:23:07;;;;;;;10.47;5.00;;;;;;;;;;4996510;28;20445;-67
2023/04/30 09:25:42;;;;;;;9.83;4.43;;;;;;;;;;4996264;28;20441;-68
2023/04/30 09:28:10;;;;;;;13.43;4.37;;;;;;;;;;4996439;28;20476;-67
2023/04/30 09:30:37;;;;;;;9.07;3.90;;;;;;;;;;4996129;28;20441;-68
2023/04/30 09:33:05;;;;;;;6.27;3.90;;;;;;;;;;4996528;28;20454;-67
2023/04/30 09:35:33;;;;;;;14.17;5.17;;;;;;;;;;4996422;28;20456;-68
2023/04/30 09:38:01;;;;;;;9.77;4.50;;;;;;;;;;4999352;28;20484;-68
2023/04/30 09:40:39;;;;;;;7.60;5.03;;;;;;;;;;5014712;28;20453;-68
2023/04/30 09:43:07;;;;;;;7.30;4.30;;;;;;;;;;5015081;28;20455;-68
2023/04/30 09:45:41;;;;;;;5.67;4.60;;;;;;;;;;5014844;28;20448;-67
2023/04/30 09:48:10;;;;;;;7.10;4.67;;;;;;;;;;5014584;28;20515;-68
2023/04/30 09:50:40;;;;;;;5.40;3.43;;;;;;;;;;5015212;28;20449;-68
2023/04/30 09:53:08;;;;;;;5.37;4.20;;;;;;;;;;5014870;28;20532;-67
2023/04/30 09:55:36;;;;;;;8.43;4.40;;;;;;;;;;5014850;28;20429;-68
2023/04/30 09:58:06;;;;;;;5.20;3.90;;;;;;;;;;5014875;28;20540;-67
2023/04/30 10:00:35;;;;;;;4.77;4.37;;;;;;;;;;5015083;28;20456;-67
2023/04/30 10:03:05;;;;;;;12.60;4.50;;;;;;;;;;5014936;28;20451;-67
2023/04/30 10:05:34;;;;;;;10.00;4.83;;;;;;;;;;5015153;28;20437;-68
2023/04/30 10:08:02;;;;;;;6.53;4.67;;;;;;;;;;5007558;28;20495;-68
2023/04/30 10:10:30;;;;;;;4.30;3.90;;;;;;;;;;4995216;28;20459;-67
2023/04/30 10:13:00;;;;;;;6.07;4.83;;;;;;;;;;4994492;28;20442;-68
2023/04/30 10:15:30;;;;;;;8.57;5.47;;;;;;;;;;4995037;28;20433;-68
2023/04/30 10:18:01;;;;;;;5.13;3.87;;;;;;;;;;4995954;28;20468;-68
2023/04/30 10:20:28;;;;;;;9.57;5.43;;;;;;;;;;4995378;28;20434;-67
2023/04/30 10:22:56;;;;;;;10.00;4.70;;;;;;;;;;4995584;28;20449;-67
2023/04/30 10:25:25;;;;;;;7.23;4.40;;;;;;;;;;4995155;28;20482;-68
2023/04/30 10:27:52;;;;;;;7.50;4.20;;;;;;;;;;4994622;28;20489;-67
2023/04/30 10:30:22;;;;;;;7.63;6.50;;;;;;;;;;4994619;28;20474;-67
2023/04/30 10:32:52;;;;;;;8.30;6.10;;;;;;;;;;4994571;28;20459;-67
2023/04/30 10:35:22;;;;;;;10.07;5.23;;;;;;;;;;4994689;28;20458;-68
2023/04/30 10:37:54;;;;;;;5.63;4.00;;;;;;;;;;4994526;28;20497;-68
2023/04/30 10:40:21;;;;;;;14.80;7.60;;;;;;;;;;4994649;28;20489;-69
2023/04/30 10:42:48;;;;;;;7.53;4.40;;;;;;;;;;4994985;28;20801;-69
2023/04/30 10:45:16;;;;;;;4.40;4.00;;;;;;;;;;4994830;28;20452;-69
2023/04/30 10:47:45;;;;;;;6.40;4.20;;;;;;;;;;4994838;28;20545;-69
2023/04/30 10:50:13;;;;;;;10.97;6.20;;;;;;;;;;4994571;28;20451;-70
2023/04/30 10:52:41;;;;;;;8.50;5.37;;;;;;;;;;4994397;28;20529;-69
2023/04/30 10:55:09;;;;;;;6.63;4.57;;;;;;;;;;4994660;28;20485;-69
2023/04/30 10:57:47;;;;;;;9.37;4.53;;;;;;;;;;4994992;28;20517;-69
2023/04/30 11:00:21;;;;;;;5.00;4.27;;;;;;;;;;4994687;28;20521;-69
2023/04/30 11:02:48;;;;;;;6.37;4.33;;;;;;;;;;4994699;28;20530;-68
2023/04/30 11:05:16;;;;;;;5.13;3.63;;;;;;;;;;4994728;28;20967;-69
2023/04/30 11:07:49;;;;;;;7.83;5.63;;;;;;;;;;4994332;28;21042;-69
2023/04/30 11:10:16;;;;;;;10.67;5.10;;;;;;;;;;4994545;28;20849;-70
2023/04/30 11:12:48;;;;;;;4.97;4.03;;;;;;;;;;4995129;28;20445;-69
2023/04/30 11:15:16;;;;;;;4.40;3.97;;;;;;;;;;4994615;28;20444;-69
2023/04/30 11:17:44;;;;;;;5.90;3.50;;;;;;;;;;4994389;28;20453;-69
2023/04/30 11:20:13;;;;;;;4.27;3.50;;;;;;;;;;4994071;28;20483;-70
2023/04/30 11:22:46;;;;;;;5.43;3.60;;;;;;;;;;4994348;28;20460;-69
2023/04/30 11:25:19;;;;;;;5.23;4.20;;;;;;;;;;4993465;28;20920;-69
2023/04/30 11:27:46;;;;;;;3.77;3.43;;;;;;;;;;4994389;28;20471;-68
2023/04/30 11:30:15;;;;;;;4.80;3.40;;;;;;;;;;4993928;28;20454;-69
2023/04/30 11:32:46;;;;;;;9.20;4.80;;;;;;;;;;4994126;28;20458;-69
2023/04/30 11:35:14;;;;;;;6.20;3.53;;;;;;;;;;4994293;28;20804;-68
2023/04/30 11:37:43;;;;;;;6.93;5.00;;;;;;;;;;4993798;28;21053;-68
2023/04/30 11:40:11;;;;;;;10.83;7.30;;;;;;;;;;4994042;28;20480;-69
2023/04/30 11:42:40;;;;;;;12.53;8.67;;;;;;;;;;4993787;28;20485;-69
2023/04/30 11:45:09;;;;;;;6.67;3.83;;;;;;;;;;4994548;28;20446;-69
2023/04/30 11:47:40;;;;;;;4.37;2.80;;;;;;;;;;4993509;28;20493;-69
2023/04/30 11:50:08;;;;;;;4.90;3.73;;;;;;;;;;4993965;28;20446;-67
2023/04/30 11:52:35;;;;;;;2.97;2.67;;;;;;;;;;4993871;28;20525;-69
2023/04/30 11:55:06;;;;;;;7.53;6.83;;;;;;;;;;4993852;28;20450;-69
2023/04/30 11:57:35;;;;;;;6.83;3.90;;;;;;;;;;4994055;28;20467;-69
2023/04/30 12:00:10;;;;;;;8.37;6.53;;;;;;;;;;5002812;28;20458;-70
2023/04/30 12:02:38;;;;;;;7.00;3.47;;;;;;;;;;5013214;28;20543;-68
2023/04/30 12:05:06;;;;;;;9.00;6.60;;;;;;;;;;5012946;28;20446;-69
2023/04/30 12:07:33;;;;;;;4.67;3.13;;;;;;;;;;5012774;28;20577;-68
2023/04/30 12:10:00;;;;;;;7.20;5.03;;;;;;;;;;5013598;28;20493;-67
2023/04/30 12:12:28;;;;;;;8.93;4.53;;;;;;;;;;5013333;28;20441;-67
2023/04/30 12:14:55;;;;;;;5.57;4.00;;;;;;;;;;5013017;28;20489;-67
2023/04/30 12:17:34;;;;;;;6.07;4.33;;;;;;;;;;5012783;28;20454;-67
2023/04/30 12:20:02;;;;;;;8.20;5.27;;;;;;;;;;5013203;28;20472;-68
2023/04/30 12:22:30;;;;;;;6.77;4.27;;;;;;;;;;5012649;28;20977;-67
2023/04/30 12:24:57;;;;;;;13.30;8.67;;;;;;;;;;5012658;28;20457;-69
2023/04/30 12:27:24;;;;;;;3.10;2.80;;;;;;;;;;5012588;28;20482;-68
2023/04/30 12:29:53;;;;;;;6.70;3.43;;;;;;;;;;5003705;28;20769;-67
2023/04/30 12:32:22;;;;;;;9.40;7.63;;;;;;;;;;4993076;28;20933;-67
2023/04/30 12:34:50;;;;;;;7.70;4.83;;;;;;;;;;4993572;28;20452;-67
2023/04/30 12:37:18;;;;;;;6.50;4.80;;;;;;;;;;4996489;28;20485;-67
2023/04/30 12:39:46;;;;;;;8.40;4.70;;;;;;;;;;4997457;28;20834;-68
2023/04/30 12:42:14;;;;;;;14.40;7.30;;;;;;;;;;4996772;28;20526;-67
2023/04/30 12:44:44;;;;;;;6.00;3.47;;;;;;;;;;4996953;28;20445;-67
2023/04/30 12:47:13;;;;;;;5.30;3.57;;;;;;;;;;4996207;28;20436;-67
2023/04/30 12:49:40;;;;;;;12.33;3.37;;;;;;;;;;4996794;28;20941;-67
2023/04/30 12:52:11;;;;;;;6.67;3.53;;;;;;;;;;4996462;28;20999;-67
2023/04/30 12:54:38;;;;;;;7.70;3.93;;;;;;;;;;4995957;28;20986;-67
2023/04/30 12:57:07;;;;;;;8.53;4.57;;;;;;;;;;5011626;28;20944;-67
2023/04/30 12:59:35;;;;;;;5.37;4.07;;;;;;;;;;5015915;28;20479;-68
2023/04/30 13:02:12;;;;;;;3.20;2.90;;;;;;;;;;5015677;28;20437;-68
2023/04/30 13:04:39;;;;;;;4.93;4.00;;;;;;;;;;5015934;28;20435;-68
2023/04/30 13:07:07;;;;;;;4.27;3.30;;;;;;;;;;5014891;28;20453;-69
2023/04/30 13:09:35;;;;;;;8.93;4.07;;;;;;;;;;5015572;28;20571;-67
2023/04/30 13:12:03;;;;;;;4.13;2.80;;;;;;;;;;5015466;28;20453;-67
2023/04/30 13:14:30;;;;;;;6.87;2.67;;;;;;;;;;5015959;28;20434;-67
2023/04/30 13:16:57;;;;;;;11.30;3.93;;;;;;;;;;5016140;28;20457;-69
2023/04/30 13:19:25;;;;;;;5.10;3.60;;;;;;;;;;5015939;28;20449;-68
2023/04/30 13:21:52;;;;;;;6.30;3.80;;;;;;;;;;5015900;28;20446;-68
2023/04/30 13:24:19;;;;;;;7.23;3.83;;;;;;;;;;5015824;28;20446;-65
2023/04/30 13:26:48;;;;;;;8.70;4.37;;;;;;;;;;5014742;28;20458;-67
2023/04/30 13:29:15;;;;;;;8.93;6.10;;;;;;;;;;5015405;28;20556;-66
2023/04/30 13:31:43;;;;;;;5.57;3.20;;;;;;;;;;5015799;28;20449;-66
2023/04/30 13:34:10;;;;;;;2.27;2.03;;;;;;;;;;5015803;28;20446;-66
2023/04/30 13:36:37;;;;;;;3.43;2.23;;;;;;;;;;5015226;28;20453;-67
2023/04/30 13:39:05;;;;;;;4.60;2.47;;;;;;;;;;5014928;28;20479;-68
2023/04/30 13:41:32;;;;;;;3.00;2.40;;;;;;;;;;5015360;28;20505;-68
2023/04/30 13:44:01;;;;;;;5.77;2.90;;;;;;;;;;5015000;28;20443;-68
2023/04/30 13:46:29;;;;;;;3.53;2.87;;;;;;;;;;5014263;28;20447;-68
2023/04/30 13:48:56;;;;;;;2.93;2.40;;;;;;;;;;5014296;28;20473;-67
2023/04/30 13:51:23;;;;;;;2.50;2.20;;;;;;;;;;5015238;28;20862;-67
2023/04/30 13:53:50;;;;;;;2.30;2.10;;;;;;;;;;5014887;28;20447;-67
2023/04/30 13:56:17;;;;;;;6.93;2.40;;;;;;;;;;5015229;28;20455;-67
2023/04/30 13:58:45;;;;;;;4.03;2.50;;;;;;;;;;5014793;28;20469;-68
2023/04/30 14:01:14;;;;;;;3.30;2.47;;;;;;;;;;5015140;28;20461;-67
2023/04/30 14:03:41;;;;;;;2.70;2.10;;;;;;;;;;5014676;28;20932;-68
2023/04/30 14:06:08;;;;;;;7.07;2.23;;;;;;;;;;5014683;28;20451;-70
2023/04/30 14:08:35;;;;;;;5.30;2.23;;;;;;;;;;5014516;28;20483;-68
2023/04/30 14:11:03;;;;;;;3.53;2.13;;;;;;;;;;5014982;28;20502;-69
2023/04/30 14:13:30;;;;;;;6.13;3.10;;;;;;;;;;5014542;28;20908;-70
2023/04/30 14:15:57;;;;;;;7.10;2.50;;;;;;;;;;5013996;28;20955;-70
2023/04/30 14:18:32;;;;;;;2.60;1.70;;;;;;;;;;5014345;28;20456;-70
2023/04/30 14:20:59;;;;;;;3.43;2.43;;;;;;;;;;5014704;28;20593;-70
2023/04/30 14:23:27;;;;;;;3.43;2.30;;;;;;;;;;5014211;28;20471;-70
2023/04/30 14:25:55;;;;;;;3.60;2.80;;;;;;;;;;5014183;28;21025;-70
2023/04/30 14:28:22;;;;;;;3.03;2.30;;;;;;;;;;5014241;28;20487;-70
2023/04/30 14:30:49;;;;;;;4.10;2.73;;;;;;;;;;5014405;28;20447;-70
2023/04/30 14:33:16;;;;;;;2.53;2.17;;;;;;;;;;5014202;28;20478;-70
2023/04/30 14:35:46;;;;;;;4.23;2.50;;;;;;;;;;5015021;28;20455;-70
2023/04/30 14:38:13;;;;;;;3.07;2.20;;;;;;;;;;5014536;28;20581;-71